Time;durP1;ratioP1;P1;durP2;ratioP2;P2;SDS_P1;SDS_P2;PMS_P1;PMS_P2;Temp;Humidity;BMP_temperature;BMP_pressure;BME280_temperature;BME280_humidity;BME280_pressure;Samples;Min_cycle;Max_cycle;Signal;HPM_P1;HPM_P2
2021/04/15 00:00:21;;;;;;;26.42;12.13;;;;;;;7.50;83.86;99053.92;1694832;84;21140;-65
2021/04/15 00:02:49;;;;;;;20.50;12.07;;;;;;;7.47;83.99;99052.62;1694343;84;21101;-65
2021/04/15 00:05:25;;;;;;;27.13;12.80;;;;;;;7.44;84.03;99042.31;1694917;84;21513;-65
2021/04/15 00:07:53;;;;;;;24.85;13.75;;;;;;;7.41;83.78;99040.75;1694938;84;21607;-65
2021/04/15 00:10:29;;;;;;;19.75;12.07;;;;;;;7.37;83.63;99043.84;1694817;84;21113;-65
2021/04/15 00:12:58;;;;;;;22.07;12.25;;;;;;;7.33;83.94;99041.47;1694874;84;21268;-64
2021/04/15 00:15:26;;;;;;;25.50;11.78;;;;;;;7.26;84.33;99039.16;1694928;84;21556;-67
2021/04/15 00:17:54;;;;;;;24.95;12.73;;;;;;;7.20;84.72;99034.36;1694872;83;21148;-66
2021/04/15 00:20:23;;;;;;;21.52;11.75;;;;;;;7.14;84.97;99031.48;1694860;84;21109;-67
2021/04/15 00:22:51;;;;;;;24.50;13.78;;;;;;;7.07;85.31;99029.73;1694807;84;21104;-67
2021/04/15 00:25:19;;;;;;;28.73;15.05;;;;;;;7.00;85.56;99035.34;1694904;84;21069;-68
2021/04/15 00:27:53;;;;;;;27.82;14.07;;;;;;;6.95;85.48;99033.52;1694931;84;21097;-67
2021/04/15 00:30:22;;;;;;;27.27;14.20;;;;;;;6.87;85.05;99030.98;1694938;84;21497;-65
2021/04/15 00:32:50;;;;;;;24.18;13.08;;;;;;;6.81;84.94;99028.66;1695317;84;21549;-66
2021/04/15 00:35:19;;;;;;;23.22;13.20;;;;;;;6.75;84.98;99032.03;1712976;83;21104;-66
2021/04/15 00:37:49;;;;;;;27.32;13.80;;;;;;;6.69;84.98;99030.52;1712935;83;20981;-66
2021/04/15 00:40:20;;;;;;;24.20;14.98;;;;;;;6.63;84.97;99029.80;1713079;83;21037;-65
2021/04/15 00:42:47;;;;;;;32.10;16.17;;;;;;;6.57;84.95;99035.11;1713026;83;21088;-66
2021/04/15 00:45:23;;;;;;;28.73;14.33;;;;;;;6.52;84.97;99039.29;1713008;83;21397;-65
2021/04/15 00:48:02;;;;;;;21.17;13.10;;;;;;;6.46;85.14;99037.77;1712848;83;21128;-66
2021/04/15 00:50:38;;;;;;;29.57;15.65;;;;;;;6.35;85.38;99034.19;1713036;83;20958;-66
2021/04/15 00:53:05;;;;;;;25.10;14.75;;;;;;;6.35;85.38;99034.19;1713087;83;21155;-67
2021/04/15 00:55:34;;;;;;;26.37;13.98;;;;;;;6.32;85.68;99038.88;1688777;83;21139;-67
2021/04/15 00:58:03;;;;;;;27.37;15.08;;;;;;;6.27;85.93;99034.33;1688695;83;21563;-67
2021/04/15 01:00:33;;;;;;;25.17;14.10;;;;;;;6.23;86.14;99031.94;1712835;83;21068;-67
2021/04/15 01:03:02;;;;;;;25.32;14.53;;;;;;;6.19;86.30;99037.73;1712968;83;20954;-67
2021/04/15 01:05:39;;;;;;;28.38;12.98;;;;;;;6.15;86.40;99033.44;1712996;83;21516;-67
2021/04/15 01:08:08;;;;;;;24.67;14.78;;;;;;;6.10;86.76;99028.08;1713013;82;21100;-67
2021/04/15 01:10:41;;;;;;;25.80;14.00;;;;;;;6.07;87.09;99022.41;1713095;83;21392;-67
2021/04/15 01:13:50;;;;;;;26.57;13.48;;;;;;;5.97;87.47;99017.94;1713020;83;21083;-67
2021/04/15 01:16:35;;;;;;;25.40;13.93;;;;;;;5.97;87.47;99017.94;1713006;83;20950;-67
2021/04/15 01:19:43;;;;;;;27.90;14.30;;;;;;;5.91;87.38;99020.48;1690007;83;21104;-67
2021/04/15 01:22:28;;;;;;;24.90;14.58;;;;;;;5.87;87.46;99017.52;1713134;83;21068;-67
2021/04/15 01:25:20;;;;;;;22.45;13.28;;;;;;;5.80;87.42;99016.28;1712704;83;21413;-67
2021/04/15 01:27:49;;;;;;;23.05;13.45;;;;;;;5.75;87.60;99009.58;1694550;83;21548;-67
2021/04/15 01:30:37;;;;;;;28.57;14.85;;;;;;;5.69;87.95;99013.49;1688334;83;21001;-67
2021/04/15 01:33:29;;;;;;;31.68;15.95;;;;;;;5.62;87.88;99007.87;1711985;83;21180;-65
2021/04/15 01:36:04;;;;;;;27.67;14.65;;;;;;;5.55;88.04;99008.80;1712561;83;21205;-66
2021/04/15 01:38:47;;;;;;;27.52;15.23;;;;;;;5.49;88.03;99009.97;1712247;83;21622;-65
2021/04/15 01:41:23;;;;;;;28.77;15.00;;;;;;;5.46;88.08;99007.03;1712381;83;21603;-66
2021/04/15 01:43:59;;;;;;;26.50;14.25;;;;;;;5.40;88.22;99004.94;1712307;83;21075;-66
2021/04/15 01:46:29;;;;;;;30.02;15.13;;;;;;;5.38;88.37;99006.33;1712342;83;21151;-64
2021/04/15 01:48:59;;;;;;;30.72;15.90;;;;;;;5.32;88.65;99001.52;1712415;83;21064;-64
2021/04/15 01:51:33;;;;;;;26.90;14.30;;;;;;;5.29;88.87;99006.19;1712706;83;21156;-64
2021/04/15 01:54:34;;;;;;;24.72;14.87;;;;;;;5.25;88.92;99001.87;1712343;83;20982;-64
2021/04/15 01:57:13;;;;;;;30.15;16.30;;;;;;;5.21;88.96;98998.12;1712382;83;20981;-64
2021/04/15 01:59:47;;;;;;;28.98;15.30;;;;;;;5.17;89.17;98999.84;1712389;83;20946;-64
2021/04/15 02:02:23;;;;;;;35.98;18.15;;;;;;;5.16;89.28;98998.78;1685961;83;20994;-64
2021/04/15 02:05:02;;;;;;;34.03;15.95;;;;;;;5.07;88.68;98992.38;1686336;83;21391;-65
2021/04/15 02:07:33;;;;;;;31.85;15.70;;;;;;;4.98;88.81;98990.85;1711607;82;21021;-65
2021/04/15 02:10:06;;;;;;;38.67;17.77;;;;;;;4.98;88.81;98990.85;1712371;83;20941;-64
2021/04/15 02:12:35;;;;;;;33.70;17.10;;;;;;;4.93;88.69;98994.45;1712343;83;21017;-66
2021/04/15 02:15:14;;;;;;;38.00;18.27;;;;;;;4.89;88.89;98993.41;1712381;83;21085;-65
2021/04/15 02:17:42;;;;;;;36.13;18.90;;;;;;;4.86;89.11;98992.64;1712359;83;21447;-65
2021/04/15 02:20:18;;;;;;;43.25;20.65;;;;;;;4.79;89.60;98983.22;1712299;83;21124;-65
2021/04/15 02:23:04;;;;;;;45.08;21.17;;;;;;;4.79;89.81;98988.66;1712310;83;21253;-65
2021/04/15 02:25:45;;;;;;;40.95;20.52;;;;;;;4.79;89.81;98988.66;1712112;83;20954;-66
2021/04/15 02:28:28;;;;;;;39.75;19.10;;;;;;;4.76;89.94;98985.96;1712354;83;21218;-65
2021/04/15 02:31:08;;;;;;;37.33;19.98;;;;;;;4.70;90.04;98979.52;1712350;83;20957;-65
2021/04/15 02:33:59;;;;;;;38.13;20.10;;;;;;;4.67;90.18;98978.73;1685779;83;21183;-64
2021/04/15 02:36:31;;;;;;;34.95;18.55;;;;;;;4.64;90.49;98982.84;1712344;83;21144;-66
2021/04/15 02:39:11;;;;;;;40.78;21.07;;;;;;;4.62;90.55;98980.42;1687211;83;21527;-66
2021/04/15 02:41:39;;;;;;;44.30;19.92;;;;;;;4.59;90.54;98981.03;1686062;83;21104;-67
2021/04/15 02:44:20;;;;;;;33.02;18.98;;;;;;;4.55;90.45;98978.63;1712301;83;22117;-67
2021/04/15 02:46:55;;;;;;;42.30;20.10;;;;;;;4.53;90.56;98982.73;1712506;83;21559;-66
2021/04/15 02:49:25;;;;;;;35.85;19.07;;;;;;;4.49;90.60;98980.34;1712365;83;21512;-67
2021/04/15 02:52:01;;;;;;;;;;;;;;;4.46;90.66;98976.28;1714838;83;21048;-66
2021/04/15 02:54:36;;;;;;;40.78;17.90;;;;;;;4.45;90.77;98985.54;1712352;83;20152;-66
2021/04/15 02:57:08;;;;;;;38.13;20.40;;;;;;;4.42;90.91;98977.97;1710790;83;22296;-67
2021/04/15 02:59:46;;;;;;;;;;;;;;;4.39;90.84;98977.19;1704219;83;21596;-66
2021/04/15 03:02:29;;;;;;;47.25;21.40;;;;;;;4.37;90.66;98982.64;1712081;83;20241;-66
2021/04/15 03:05:07;;;;;;;38.10;21.50;;;;;;;4.30;90.40;98980.27;1681462;84;21181;-65
2021/04/15 03:07:39;;;;;;;42.70;20.62;;;;;;;4.25;90.37;98981.68;1664326;84;21537;-65
2021/04/15 03:10:14;;;;;;;36.53;19.52;;;;;;;4.22;90.43;98980.90;1683455;85;21466;-65
2021/04/15 03:12:48;;;;;;;35.70;19.12;;;;;;;4.20;90.49;98978.47;1713026;83;21190;-65
2021/04/15 03:15:22;;;;;;;41.13;20.62;;;;;;;4.16;90.60;98976.61;1713076;83;21128;-65
2021/04/15 03:17:54;;;;;;;40.45;20.43;;;;;;;4.10;90.87;98978.57;1683482;85;21099;-65
2021/04/15 03:20:32;;;;;;;43.60;21.73;;;;;;;4.10;90.87;98978.57;1695783;84;21631;-65
2021/04/15 03:23:38;;;;;;;39.03;22.15;;;;;;;4.11;90.87;98976.66;1683496;85;21402;-65
2021/04/15 03:26:18;;;;;;;45.78;22.40;;;;;;;4.09;90.91;98978.86;1695566;84;21148;-65
2021/04/15 03:28:51;;;;;;;48.20;23.40;;;;;;;4.06;90.98;98980.23;1713048;83;20957;-64
2021/04/15 03:31:25;;;;;;;46.70;24.57;;;;;;;4.07;91.36;98984.58;1709326;83;21544;-64
2021/04/15 03:33:57;;;;;;;79.22;31.42;;;;;;;4.08;91.58;98988.09;1676820;85;21161;-64
2021/04/15 03:36:40;;;;;;;73.00;30.55;;;;;;;4.05;91.82;98992.75;1699402;84;22216;-68
2021/04/15 03:39:10;;;;;;;;;;;;;;;4.06;92.18;98991.66;1677595;85;21066;-64
2021/04/15 03:41:43;;;;;;;64.22;29.77;;;;;;;4.12;92.59;98990.51;1699356;84;20154;-72
2021/04/15 03:44:35;;;;;;;56.60;25.05;;;;;;;4.19;92.98;98988.27;1675333;85;21091;-66
2021/04/15 03:47:21;;;;;;;56.33;23.80;;;;;;;4.23;92.95;98996.91;1699475;84;21216;-66
2021/04/15 03:50:03;;;;;;;53.83;25.23;;;;;;;4.29;93.18;98997.67;1675166;85;22334;-66
2021/04/15 03:52:40;;;;;;;49.90;26.57;;;;;;;4.39;93.54;98996.20;1699063;84;21108;-65
2021/04/15 03:55:23;;;;;;;60.73;27.42;;;;;;;4.50;93.47;98998.27;1700883;84;20954;-66
2021/04/15 03:57:56;;;;;;;52.38;24.80;;;;;;;4.54;93.07;98993.32;1701333;84;21132;-65
2021/04/15 04:00:30;;;;;;;;;;;;;;;4.57;92.93;98997.37;1684386;84;21140;-66
2021/04/15 04:03:02;;;;;;;48.17;24.55;;;;;;;4.64;93.14;98999.16;1703485;84;21280;-64
2021/04/15 04:05:42;;;;;;;;;;;;;;;4.74;93.41;98995.51;1705562;84;21115;-65
2021/04/15 04:08:15;;;;;;;44.83;22.75;;;;;;;4.82;93.40;98993.51;1703362;83;20205;-65
2021/04/15 04:10:56;;;;;;;47.23;24.12;;;;;;;4.96;93.36;98994.42;1890110;76;21471;-64
2021/04/15 04:13:36;;;;;;;48.50;23.65;;;;;;;5.01;93.32;99001.70;1861051;77;21551;-65
2021/04/15 04:16:41;;;;;;;48.60;23.52;;;;;;;5.20;93.27;98999.81;1861087;77;21436;-66
2021/04/15 04:19:36;;;;;;;42.27;22.62;;;;;;;5.20;93.27;98999.81;1860931;77;20907;-65
2021/04/15 04:22:45;;;;;;;42.60;21.95;;;;;;;5.33;93.27;99004.49;1844442;77;20983;-64
2021/04/15 04:25:22;;;;;;;46.73;23.95;;;;;;;5.43;93.05;99006.26;1861022;77;20983;-64
2021/04/15 04:28:09;;;;;;;41.75;25.30;;;;;;;5.50;93.05;99005.34;1861035;77;21054;-67
2021/04/15 04:31:00;;;;;;;50.20;26.77;;;;;;;5.64;93.46;99004.84;1861135;77;21345;-63
2021/04/15 04:33:39;;;;;;;52.95;26.20;;;;;;;5.64;93.46;99004.84;1808032;77;20923;-64
2021/04/15 04:36:09;;;;;;;54.00;26.73;;;;;;;5.75;93.37;99009.58;1861044;77;21478;-64
2021/04/15 04:38:37;;;;;;;58.85;28.20;;;;;;;5.86;93.79;99008.28;1861098;77;21454;-64
2021/04/15 04:41:14;;;;;;;70.60;31.95;;;;;;;5.96;93.80;99004.88;1861031;77;21094;-65
2021/04/15 04:43:53;;;;;;;78.55;33.67;;;;;;;6.13;93.28;99003.50;1830532;77;21196;-64
2021/04/15 04:46:35;;;;;;;58.63;30.77;;;;;;;6.21;93.54;98999.53;1861015;77;20908;-65
2021/04/15 04:49:07;;;;;;;63.40;28.00;;;;;;;6.21;93.54;98999.53;1860229;77;21546;-67
2021/04/15 04:51:45;;;;;;;68.22;29.15;;;;;;;6.33;93.07;99001.77;1859113;77;21123;-72
2021/04/15 04:54:15;;;;;;;48.33;25.80;;;;;;;6.40;92.72;99001.35;1860158;77;20970;-73
2021/04/15 04:56:53;;;;;;;55.98;26.15;;;;;;;6.47;92.47;98998.48;1827777;77;22457;-75
2021/04/15 04:59:30;;;;;;;52.83;27.77;;;;;;;6.55;92.36;99001.06;1859964;77;20975;-72
2021/04/15 05:01:57;;;;;;;71.87;26.75;;;;;;;6.62;92.10;98996.83;1859472;77;21167;-73
2021/04/15 05:04:30;;;;;;;49.85;27.30;;;;;;;6.71;92.08;98999.66;1860308;77;20979;-74
2021/04/15 05:07:08;;;;;;;48.50;25.88;;;;;;;6.80;91.99;98995.66;1857430;77;21007;-72
2021/04/15 05:09:38;;;;;;;53.08;28.95;;;;;;;6.91;91.84;99002.53;1793722;78;21390;-72
2021/04/15 05:12:19;;;;;;;50.88;28.47;;;;;;;6.99;91.57;99005.88;1819919;78;21062;-70
2021/04/15 05:14:51;;;;;;;45.92;30.15;;;;;;;7.05;91.49;99004.66;1819772;78;20892;-70
2021/04/15 05:17:35;;;;;;;47.35;28.60;;;;;;;7.13;91.42;99010.77;1819701;78;20991;-70
2021/04/15 05:20:11;;;;;;;41.35;26.12;;;;;;;7.21;91.44;99011.96;1819739;78;21546;-68
2021/04/15 05:22:55;;;;;;;40.28;24.87;;;;;;;7.32;91.41;99013.36;1818909;78;21774;-75
2021/04/15 05:25:34;;;;;;;46.15;28.80;;;;;;;7.41;91.20;99007.42;1819160;78;20991;-71
2021/04/15 05:28:03;;;;;;;52.70;30.35;;;;;;;7.53;90.98;99006.85;1819022;78;21026;-74
2021/04/15 05:30:40;;;;;;;53.52;34.65;;;;;;;7.63;90.70;99003.88;1819074;78;20924;-73
2021/04/15 05:33:12;;;;;;;55.38;33.63;;;;;;;7.75;90.41;99002.77;1819160;78;20888;-75
2021/04/15 05:35:45;;;;;;;53.35;33.08;;;;;;;7.84;89.75;99002.84;1792976;78;21797;-67
2021/04/15 05:38:13;;;;;;;38.25;26.15;;;;;;;7.93;89.70;99006.44;1818131;78;21154;-68
2021/04/15 05:40:41;;;;;;;44.95;26.33;;;;;;;8.04;89.63;98995.50;1818029;78;20935;-79
2021/04/15 05:43:48;;;;;;;42.25;27.10;;;;;;;8.14;88.91;98999.88;1821525;78;20938;-74
2021/04/15 05:46:22;;;;;;;56.45;30.48;;;;;;;8.21;88.72;98997.50;1830053;78;21689;-67
2021/04/15 05:48:57;;;;;;;59.38;32.05;;;;;;;8.33;88.55;98996.39;1807289;78;21189;-70
2021/04/15 05:51:34;;;;;;;53.35;33.30;;;;;;;8.43;88.24;98994.76;1820210;77;21572;-68
2021/04/15 05:54:10;;;;;;;56.75;33.35;;;;;;;8.52;87.96;98996.97;1828113;77;21036;-68
2021/04/15 05:56:59;;;;;;;53.25;33.20;;;;;;;8.59;87.20;98993.22;1852489;77;20926;-68
2021/04/15 05:59:52;;;;;;;51.13;32.23;;;;;;;8.63;86.59;98987.92;1833904;77;20975;-66
2021/04/15 06:02:55;;;;;;;48.95;30.77;;;;;;;8.63;86.34;98995.33;1818511;78;21134;-68
2021/04/15 06:06:00;;;;;;;45.92;30.15;;;;;;;8.65;86.62;98988.42;1818214;78;21608;-67
2021/04/15 06:08:32;;;;;;;46.58;31.50;;;;;;;8.75;87.20;98988.66;1817715;78;20927;-68
2021/04/15 06:11:09;;;;;;;52.17;31.20;;;;;;;8.87;86.52;98991.04;1824643;78;20927;-69
2021/04/15 06:13:44;;;;;;;51.18;33.28;;;;;;;8.92;86.08;98983.24;1772571;78;20935;-68
2021/04/15 06:16:33;;;;;;;53.50;31.93;;;;;;;8.97;86.01;98981.73;1770309;78;21545;-72
2021/04/15 06:19:19;;;;;;;48.10;29.87;;;;;;;8.99;85.63;98980.04;1831908;78;20997;-73
2021/04/15 06:21:54;;;;;;;50.88;31.02;;;;;;;9.07;85.76;98986.10;1837592;78;20957;-71
2021/04/15 06:24:28;;;;;;;47.53;31.00;;;;;;;9.10;85.51;98988.20;1834737;78;21032;-79
2021/04/15 06:26:59;;;;;;;48.00;28.10;;;;;;;9.14;85.61;98987.24;1836697;78;21547;-73
2021/04/15 06:29:35;;;;;;;50.33;30.20;;;;;;;9.19;85.41;98987.09;1822726;78;22171;-76
2021/04/15 06:32:04;;;;;;;48.35;30.88;;;;;;;9.23;85.34;98993.55;1826211;78;21023;-74
2021/04/15 06:34:32;;;;;;;42.05;29.10;;;;;;;9.23;84.89;98995.47;1824801;78;21011;-76
2021/04/15 06:37:08;;;;;;;51.50;28.92;;;;;;;9.20;84.81;98994.18;1824795;78;20935;-75
2021/04/15 06:39:45;;;;;;;45.45;28.10;;;;;;;9.16;84.88;98990.47;1824959;78;21542;-76
2021/04/15 06:42:44;;;;;;;45.95;29.85;;;;;;;9.15;85.22;98997.63;1826432;78;21348;-73
2021/04/15 06:45:54;;;;;;;46.58;27.07;;;;;;;9.15;85.12;98995.70;1826617;78;21011;-76
2021/04/15 06:48:52;;;;;;;45.83;29.15;;;;;;;9.14;85.55;99000.13;1826416;78;21603;-73
2021/04/15 06:51:31;;;;;;;40.78;28.05;;;;;;;9.16;85.62;99004.16;1826673;78;21496;-70
2021/04/15 06:54:56;;;;;;;45.92;28.35;;;;;;;9.25;86.47;99006.88;1826612;78;20926;-71
2021/04/15 06:57:41;;;;;;;47.80;30.92;;;;;;;9.37;86.82;99003.52;1826546;78;21356;-72
2021/04/15 07:00:44;;;;;;;46.02;31.05;;;;;;;9.47;86.56;99007.31;1826507;78;20942;-73
2021/04/15 07:03:35;;;;;;;47.60;28.73;;;;;;;9.62;87.39;98998.62;1826476;78;21622;-75
2021/04/15 07:06:14;;;;;;;44.05;29.27;;;;;;;9.85;86.23;98994.55;1826566;78;21111;-74
2021/04/15 07:09:02;;;;;;;40.98;28.30;;;;;;;10.03;85.98;98992.59;1821101;78;21118;-75
2021/04/15 07:12:06;;;;;;;37.90;25.95;;;;;;;10.20;84.98;98991.22;1826276;78;21236;-73
2021/04/15 07:15:01;;;;;;;46.08;28.47;;;;;;;10.35;83.57;98992.64;1823546;78;20984;-72
2021/04/15 07:17:50;;;;;;;45.67;29.70;;;;;;;10.47;82.79;98989.98;1829253;78;20915;-74
2021/04/15 07:20:46;;;;;;;36.68;25.68;;;;;;;10.59;81.59;98997.53;1825490;78;20892;-78
2021/04/15 07:23:44;;;;;;;42.10;28.38;;;;;;;10.64;80.29;98997.36;1801264;78;21540;-74
2021/04/15 07:26:49;;;;;;;43.50;27.95;;;;;;;10.74;81.42;98993.44;1804715;78;21343;-69
2021/04/15 07:29:37;;;;;;;43.73;28.47;;;;;;;10.94;80.74;99002.87;1825396;78;21169;-70
2021/04/15 07:32:22;;;;;;;36.03;25.65;;;;;;;11.13;79.09;98988.92;1828084;77;20961;-72
2021/04/15 07:35:14;;;;;;;40.83;28.00;;;;;;;11.31;79.12;98992.94;1830619;77;20930;-72
2021/04/15 07:38:15;;;;;;;38.78;26.65;;;;;;;11.51;77.95;98999.02;1833076;77;20988;-74
2021/04/15 07:40:55;;;;;;;41.88;27.93;;;;;;;11.65;77.56;99003.65;1846406;77;21308;-72
2021/04/15 07:44:10;;;;;;;39.08;28.42;;;;;;;11.71;76.55;98993.25;1846454;77;20997;-76
2021/04/15 07:47:07;;;;;;;48.60;28.47;;;;;;;11.85;76.86;98993.23;1829640;77;20927;-72
2021/04/15 07:50:10;;;;;;;47.10;29.40;;;;;;;12.04;75.41;99000.19;1826489;78;20986;-73
2021/04/15 07:52:53;;;;;;;;;;;;;;;12.19;74.76;98993.45;1829321;78;20930;-81
2021/04/15 07:55:36;;;;;;;44.00;27.07;;;;;;;12.36;74.43;98981.45;1825977;78;21357;-79
2021/04/15 07:58:21;;;;;;;;;;;;;;;12.54;73.66;98981.49;1829188;78;20985;-81
2021/04/15 08:01:15;;;;;;;48.95;30.17;;;;;;;12.69;71.74;98988.28;1826849;78;20128;-86
2021/04/15 08:04:23;;;;;;;36.83;26.12;;;;;;;12.69;71.63;98988.85;1821981;78;21054;-82
2021/04/15 08:07:31;;;;;;;36.30;25.55;;;;;;;12.77;71.16;98986.53;1823971;78;21050;-69
2021/04/15 08:10:35;;;;;;;38.53;24.02;;;;;;;12.84;69.92;98980.69;1826597;78;22266;-68
2021/04/15 08:13:48;;;;;;;35.10;24.18;;;;;;;13.07;69.80;98983.78;1827583;78;21609;-68
2021/04/15 08:16:56;;;;;;;37.95;26.70;;;;;;;13.47;68.81;98974.77;1829162;77;21585;-69
2021/04/15 08:20:21;;;;;;;34.88;23.10;;;;;;;13.81;67.83;98974.78;1832831;77;21009;-68
2021/04/15 08:23:11;;;;;;;38.88;24.02;;;;;;;13.99;65.87;98978.02;1829969;78;20927;-68
2021/04/15 08:26:24;;;;;;;36.63;24.65;;;;;;;14.27;65.20;98974.65;1818239;77;21199;-67
2021/04/15 08:29:19;;;;;;;28.85;19.90;;;;;;;14.48;62.98;98971.07;1793728;80;21005;-68
2021/04/15 08:32:21;;;;;;;27.55;20.00;;;;;;;14.72;61.48;98969.30;1793687;79;20960;-73
2021/04/15 08:35:03;;;;;;;;;;;;;;;15.06;59.50;98967.14;1756516;77;20938;-68
2021/04/15 08:38:03;;;;;;;29.92;20.17;;;;;;;15.27;59.42;98966.84;1849704;76;20202;-68
2021/04/15 08:40:46;;;;;;;28.20;19.25;;;;;;;15.60;58.28;98964.23;1849810;77;21193;-68
2021/04/15 08:43:41;;;;;;;28.87;19.98;;;;;;;16.09;55.94;98954.14;1849811;77;28360;-67
2021/04/15 08:46:37;;;;;;;27.52;17.60;;;;;;;16.43;54.77;98957.11;1849728;77;20934;-69
2021/04/15 08:49:29;;;;;;;22.20;16.10;;;;;;;16.67;53.85;98954.59;1831624;77;21008;-67
2021/04/15 08:52:05;;;;;;;22.67;15.73;;;;;;;16.93;52.65;98954.59;1837574;77;21548;-65
2021/04/15 08:55:01;;;;;;;19.55;13.55;;;;;;;17.32;50.30;98958.55;1833096;77;21186;-65
2021/04/15 08:57:46;;;;;;;21.25;15.23;;;;;;;17.66;47.48;98952.47;1829807;78;21064;-67
2021/04/15 09:00:41;;;;;;;26.60;18.62;;;;;;;18.00;47.27;98953.25;1828772;78;21022;-67
2021/04/15 09:03:35;;;;;;;16.97;13.18;;;;;;;18.26;48.11;98949.57;1806168;78;21194;-67
2021/04/15 09:06:29;;;;;;;18.17;11.20;;;;;;;18.49;46.10;98944.61;1805630;79;21120;-65
2021/04/15 09:09:36;;;;;;;19.55;13.83;;;;;;;18.23;43.91;98946.17;1805644;78;21226;-65
2021/04/15 09:12:34;;;;;;;21.57;14.55;;;;;;;17.56;44.66;98943.39;1798548;79;21179;-66
2021/04/15 09:15:18;;;;;;;19.62;11.88;;;;;;;16.70;47.00;98945.53;1795463;79;21148;-65
2021/04/15 09:18:08;;;;;;;16.55;13.00;;;;;;;16.13;48.64;98943.93;1796877;79;21033;-65
2021/04/15 09:21:23;;;;;;;17.30;10.65;;;;;;;15.79;49.48;98944.25;1796916;79;21187;-64
2021/04/15 09:24:42;;;;;;;17.15;12.23;;;;;;;15.46;48.39;98941.18;1824559;78;21138;-67
2021/04/15 09:27:42;;;;;;;13.48;9.33;;;;;;;15.11;50.01;98945.34;1825149;78;21023;-69
2021/04/15 09:30:23;;;;;;;17.45;9.65;;;;;;;14.93;49.84;98941.39;1821348;78;21025;-69
2021/04/15 09:33:18;;;;;;;19.82;12.28;;;;;;;14.76;49.82;98937.84;1818251;77;21173;-67
2021/04/15 09:36:13;;;;;;;17.92;11.53;;;;;;;14.65;50.68;98939.53;1793859;80;21073;-67
2021/04/15 09:39:19;;;;;;;22.10;14.47;;;;;;;14.46;50.74;98936.11;1793564;80;21368;-67
2021/04/15 09:42:10;;;;;;;16.05;11.70;;;;;;;14.23;51.53;98933.73;1794059;80;20911;-66
2021/04/15 09:45:12;;;;;;;20.62;13.22;;;;;;;14.04;51.78;98931.64;1794164;80;20935;-65
2021/04/15 09:48:21;;;;;;;21.68;13.35;;;;;;;13.97;52.31;98927.89;1801574;78;20883;-66
2021/04/15 09:50:54;;;;;;;17.73;12.45;;;;;;;13.96;52.03;98929.84;1826599;78;21484;-65
2021/04/15 09:53:48;;;;;;;16.70;12.40;;;;;;;14.03;52.12;98930.62;1826724;78;21365;-68
2021/04/15 09:56:46;;;;;;;19.98;13.03;;;;;;;14.08;51.95;98934.50;1826131;78;21092;-68
2021/04/15 09:59:45;;;;;;;25.95;17.25;;;;;;;14.13;51.61;98932.86;1828859;78;21020;-67
2021/04/15 10:02:35;;;;;;;23.73;15.20;;;;;;;14.09;51.95;98930.59;1818655;78;21189;-69
2021/04/15 10:05:08;;;;;;;18.60;13.03;;;;;;;13.95;52.67;98936.52;1829330;78;21495;-70
2021/04/15 10:07:41;;;;;;;24.00;16.20;;;;;;;13.91;52.91;98932.86;1800505;78;21361;-69
2021/04/15 10:10:23;;;;;;;23.65;15.72;;;;;;;13.93;53.05;98932.51;1829400;78;21002;-69
2021/04/15 10:13:40;;;;;;;21.20;14.30;;;;;;;13.89;53.40;98924.13;1796671;78;21084;-70
2021/04/15 10:16:25;;;;;;;24.43;14.10;;;;;;;13.86;53.12;98924.26;1818863;78;21162;-70
2021/04/15 10:19:17;;;;;;;18.90;13.62;;;;;;;13.73;53.28;98928.26;1821949;78;21111;-70
2021/04/15 10:22:29;;;;;;;17.85;12.75;;;;;;;13.67;52.79;98930.23;1824212;77;21409;-70
2021/04/15 10:25:45;;;;;;;23.00;14.28;;;;;;;13.58;53.20;98928.20;1821896;78;21060;-69
2021/04/15 10:28:54;;;;;;;18.05;12.80;;;;;;;13.52;53.70;98926.27;1714111;83;21601;-68
2021/04/15 10:32:14;;;;;;;17.92;12.93;;;;;;;13.52;53.30;98931.20;1711586;83;21067;-69
2021/04/15 10:35:12;;;;;;;21.62;15.63;;;;;;;13.49;53.47;98928.34;1712793;83;21091;-68
2021/04/15 10:38:20;;;;;;;21.68;14.38;;;;;;;13.52;53.23;98933.16;1709657;83;21074;-67
2021/04/15 10:41:21;;;;;;;17.73;12.68;;;;;;;13.50;53.35;98933.52;1714385;83;21064;-70
2021/04/15 10:44:33;;;;;;;14.90;11.55;;;;;;;13.52;53.20;98931.20;1694619;84;21033;-71
2021/04/15 10:47:12;;;;;;;18.20;12.03;;;;;;;13.53;52.75;98932.01;1694722;84;21108;-68
2021/04/15 10:50:31;;;;;;;16.73;12.33;;;;;;;13.49;52.39;98933.28;1694638;84;21080;-67
2021/04/15 10:53:13;;;;;;;14.90;11.10;;;;;;;13.44;52.98;98936.28;1670724;84;21208;-67
2021/04/15 10:55:47;;;;;;;18.17;11.25;;;;;;;13.37;52.65;98933.31;1707657;83;21092;-67
2021/04/15 10:58:24;;;;;;;;;;;;;;;13.40;52.70;98935.38;1684895;85;21052;-67
2021/04/15 11:00:51;;;;;;;19.23;11.03;;;;;;;13.40;52.88;98931.82;1682439;85;20147;-67
2021/04/15 11:03:23;;;;;;;14.43;10.10;;;;;;;13.37;52.61;98932.52;1682414;85;21151;-66
2021/04/15 11:05:54;;;;;;;14.73;9.43;;;;;;;13.36;52.74;98931.72;1682446;85;21523;-66
2021/04/15 11:08:30;;;;;;;14.00;10.32;;;;;;;13.37;52.50;98933.89;1681428;85;21105;-65
2021/04/15 11:11:16;;;;;;;15.75;9.70;;;;;;;13.38;52.79;98927.23;1680923;85;21035;-64
2021/04/15 11:13:47;;;;;;;19.77;12.37;;;;;;;13.43;53.08;98925.03;1680941;85;21073;-64
2021/04/15 11:16:23;;;;;;;27.32;18.62;;;;;;;13.54;54.40;98929.48;1681012;85;21214;-66
2021/04/15 11:18:52;;;;;;;26.68;18.05;;;;;;;13.58;56.50;98919.93;1680989;85;21142;-65
2021/04/15 11:21:27;;;;;;;27.13;18.40;;;;;;;13.60;57.52;98925.89;1680865;85;20969;-65
2021/04/15 11:23:56;;;;;;;27.65;18.02;;;;;;;13.60;57.52;98921.19;1679867;85;20978;-66
2021/04/15 11:26:28;;;;;;;41.02;17.07;;;;;;;13.62;57.10;98926.34;1679842;85;21017;-66
2021/04/15 11:28:59;;;;;;;30.75;16.73;;;;;;;13.61;58.02;98922.79;1676403;85;21174;-67
2021/04/15 11:31:40;;;;;;;20.45;15.85;;;;;;;13.62;57.87;98921.63;1676218;85;22101;-66
2021/04/15 11:34:13;;;;;;;28.65;17.67;;;;;;;13.61;57.82;98915.09;1676248;85;21163;-65
2021/04/15 11:36:58;;;;;;;23.80;15.60;;;;;;;13.62;57.97;98916.13;1676509;85;28826;-65
2021/04/15 11:39:32;;;;;;;23.85;15.35;;;;;;;13.67;57.78;98908.98;1700222;83;20974;-65
2021/04/15 11:42:08;;;;;;;22.25;16.17;;;;;;;13.74;57.54;98912.52;1676417;85;21168;-67
2021/04/15 11:44:45;;;;;;;26.65;16.80;;;;;;;13.80;56.92;98913.86;1676319;85;21579;-65
2021/04/15 11:47:23;;;;;;;21.70;15.68;;;;;;;13.94;57.05;98910.66;1673741;83;20978;-66
2021/04/15 11:49:53;;;;;;;26.87;16.90;;;;;;;14.08;56.50;98913.80;1717129;83;21101;-64
2021/04/15 11:52:34;;;;;;;25.65;18.00;;;;;;;14.20;56.35;98909.59;1714534;83;20963;-64
2021/04/15 11:55:23;;;;;;;26.25;17.65;;;;;;;14.30;56.37;98911.83;1717229;83;21505;-65
2021/04/15 11:58:02;;;;;;;24.50;15.53;;;;;;;14.39;55.13;98908.31;1717162;83;21254;-65
2021/04/15 12:00:38;;;;;;;20.40;14.45;;;;;;;14.51;55.45;98908.22;1716732;83;21172;-74
2021/04/15 12:03:16;;;;;;;22.17;15.13;;;;;;;14.67;55.01;98910.17;1702639;83;21663;-74
2021/04/15 12:05:46;;;;;;;20.70;14.63;;;;;;;14.85;54.46;98912.78;1684660;83;21235;-73
2021/04/15 12:08:25;;;;;;;25.43;16.07;;;;;;;15.00;53.94;98909.19;1676031;85;21097;-74
2021/04/15 12:11:21;;;;;;;20.15;13.50;;;;;;;15.19;52.70;98905.05;1676089;85;21629;-76
2021/04/15 12:14:08;;;;;;;22.40;15.00;;;;;;;15.41;51.65;98902.74;1675967;85;21049;-67
2021/04/15 12:16:57;;;;;;;23.27;15.90;;;;;;;15.80;51.71;98898.00;1675703;85;21111;-71
2021/04/15 12:20:06;;;;;;;18.23;14.20;;;;;;;16.32;48.53;98895.98;1646752;85;21014;-73
2021/04/15 12:22:59;;;;;;;19.90;13.48;;;;;;;16.80;47.95;98893.59;1654434;85;21144;-76
2021/04/15 12:25:47;;;;;;;15.70;11.35;;;;;;;17.06;46.31;98886.66;1676146;85;21029;-71
2021/04/15 12:28:40;;;;;;;16.50;9.80;;;;;;;17.29;43.27;98888.55;1676060;85;21151;-67
2021/04/15 12:31:19;;;;;;;16.35;11.57;;;;;;;17.49;41.72;98881.07;1676437;85;21180;-71
2021/04/15 12:34:07;;;;;;;17.70;12.15;;;;;;;17.74;42.41;98870.88;1676387;85;21136;-71
2021/04/15 12:36:45;;;;;;;20.45;12.75;;;;;;;17.93;40.49;98878.20;1676361;85;21644;-69
2021/04/15 12:39:20;;;;;;;16.85;11.97;;;;;;;17.92;40.42;98871.84;1676448;85;22366;-72